Time;durP1;ratioP1;P1;durP2;ratioP2;P2;SDS_P1;SDS_P2;PMS_P1;PMS_P2;Temp;Humidity;BMP_temperature;BMP_pressure;BME280_temperature;BME280_humidity;BME280_pressure;Samples;Min_cycle;Max_cycle;Signal;HPM_P1;HPM_P2
2023/09/30 06:10:43;;;;;;;;;13.50;12.00;;;;;;;;6253424;22;46058;-73
2023/09/30 06:13:09;;;;;;;;;16.75;13.50;;;;;;;;6282906;22;45303;-72
2023/09/30 06:15:41;;;;;;;;;14.75;11.00;;;;;;;;6282670;22;45306;-73
2023/09/30 06:18:07;;;;;;;;;10.50;9.50;;;;;;;;6282978;22;46819;-74
2023/09/30 06:20:33;;;;;;;;;15.00;13.25;;;;;;;;6311088;22;45480;-73
2023/09/30 06:22:58;;;;;;;;;16.25;12.50;;;;;;;;6311444;22;45247;-72
2023/09/30 06:25:24;;;;;;;;;12.25;12.25;;;;;;;;6310777;22;45347;-74
2023/09/30 06:27:50;;;;;;;;;12.25;12.25;;;;;;;;6311493;22;45184;-75
2023/09/30 06:30:16;;;;;;;;;15.00;12.50;;;;;;;;6310860;22;45329;-75
2023/09/30 06:32:41;;;;;;;;;10.00;10.00;;;;;;;;6311393;22;45180;-75
2023/09/30 06:35:10;;;;;;;;;19.00;12.00;;;;;;;;6281174;22;45235;-75
2023/09/30 06:37:35;;;;;;;;;13.75;11.00;;;;;;;;6283062;22;46957;-75
2023/09/30 06:40:03;;;;;;;;;18.00;13.25;;;;;;;;6308023;22;45192;-74
2023/09/30 06:42:29;;;;;;;;;11.50;9.00;;;;;;;;6281617;22;45216;-75
2023/09/30 06:44:54;;;;;;;;;13.00;11.75;;;;;;;;6309097;22;45248;-75
2023/09/30 06:47:20;;;;;;;;;13.50;9.75;;;;;;;;6280914;22;46184;-74
2023/09/30 06:49:46;;;;;;;;;16.25;12.00;;;;;;;;6308872;22;46201;-74
2023/09/30 06:52:11;;;;;;;;;17.75;12.50;;;;;;;;6309236;22;45660;-74
2023/09/30 06:54:36;;;;;;;;;13.33;12.00;;;;;;;;6280557;22;45285;-74
2023/09/30 06:57:02;;;;;;;;;14.50;11.00;;;;;;;;6309383;22;45357;-74
2023/09/30 06:59:27;;;;;;;;;14.75;13.00;;;;;;;;6308877;22;45379;-74
2023/09/30 07:01:52;;;;;;;;;14.00;14.00;;;;;;;;6281183;22;45380;-74
2023/09/30 07:04:17;;;;;;;;;11.50;10.25;;;;;;;;6309419;22;45227;-74
2023/09/30 07:06:43;;;;;;;;;15.50;13.00;;;;;;;;6309137;22;45167;-74
2023/09/30 07:09:10;;;;;;;;;17.25;13.50;;;;;;;;6309040;22;45919;-74
2023/09/30 07:11:35;;;;;;;;;14.00;13.00;;;;;;;;6308486;22;45253;-75
2023/09/30 07:14:00;;;;;;;;;13.50;12.25;;;;;;;;6309132;22;45523;-75
2023/09/30 07:16:26;;;;;;;;;15.50;14.00;;;;;;;;6309018;22;45311;-74
2023/09/30 07:18:51;;;;;;;;;11.75;10.25;;;;;;;;6281417;22;48106;-74
2023/09/30 07:21:16;;;;;;;;;14.50;13.00;;;;;;;;6309505;22;45188;-74
2023/09/30 07:23:41;;;;;;;;;16.00;15.75;;;;;;;;6281587;22;45319;-75
2023/09/30 07:26:07;;;;;;;;;16.50;12.75;;;;;;;;6308599;22;45206;-74
2023/09/30 07:28:32;;;;;;;;;17.50;14.75;;;;;;;;6308953;22;45217;-73
2023/09/30 07:30:58;;;;;;;;;13.00;12.00;;;;;;;;6308639;22;45346;-76
2023/09/30 07:33:23;;;;;;;;;17.75;14.50;;;;;;;;6309155;22;45251;-73
2023/09/30 07:35:49;;;;;;;;;18.50;16.25;;;;;;;;6308592;22;45277;-73
2023/09/30 07:38:14;;;;;;;;;18.25;11.75;;;;;;;;6309059;22;45476;-74
2023/09/30 07:40:39;;;;;;;;;17.25;15.25;;;;;;;;6308436;22;45302;-74
2023/09/30 07:43:05;;;;;;;;;15.67;14.00;;;;;;;;6308869;22;45459;-73
2023/09/30 07:45:30;;;;;;;;;20.50;17.00;;;;;;;;6308697;22;45356;-74
2023/09/30 07:47:55;;;;;;;;;17.67;16.33;;;;;;;;6308951;22;45270;-73
2023/09/30 07:50:20;;;;;;;;;19.50;15.00;;;;;;;;6308417;22;45204;-73
2023/09/30 07:52:46;;;;;;;;;18.33;17.00;;;;;;;;6309046;22;45156;-72
2023/09/30 07:55:11;;;;;;;;;19.00;18.00;;;;;;;;6308330;22;45342;-74
2023/09/30 07:57:38;;;;;;;;;19.67;15.00;;;;;;;;6308963;22;45600;-73
2023/09/30 08:00:08;;;;;;;;;15.00;15.00;;;;;;;;6308746;22;45231;-74
2023/09/30 08:02:34;;;;;;;;;14.00;13.33;;;;;;;;6308797;22;45549;-74
2023/09/30 08:04:59;;;;;;;;;17.00;12.00;;;;;;;;6308498;22;45251;-76
2023/09/30 08:07:25;;;;;;;;;17.67;14.00;;;;;;;;6280224;22;46981;-75
2023/09/30 08:09:50;;;;;;;;;18.67;17.00;;;;;;;;6307610;22;45192;-75
2023/09/30 08:12:15;;;;;;;;;17.33;16.00;;;;;;;;6309061;22;45232;-73
2023/09/30 08:14:40;;;;;;;;;19.00;17.33;;;;;;;;6280132;22;45437;-74
2023/09/30 08:17:06;;;;;;;;;16.67;15.33;;;;;;;;6307844;22;45978;-73
2023/09/30 08:19:31;;;;;;;;;20.00;18.33;;;;;;;;6308371;22;45152;-73
2023/09/30 08:21:56;;;;;;;;;19.00;16.00;;;;;;;;6308685;22;45319;-73
2023/09/30 08:24:22;;;;;;;;;23.33;19.67;;;;;;;;6308184;22;45330;-73
2023/09/30 08:26:47;;;;;;;;;16.00;14.00;;;;;;;;6308555;22;45251;-73
2023/09/30 08:29:12;;;;;;;;;19.00;14.33;;;;;;;;6308804;22;45361;-73
2023/09/30 08:31:37;;;;;;;;;19.67;16.00;;;;;;;;6280811;22;45191;-73
2023/09/30 08:34:03;;;;;;;;;15.67;12.67;;;;;;;;6280090;22;46427;-73
2023/09/30 08:36:29;;;;;;;;;20.33;16.33;;;;;;;;6280660;22;47579;-73
2023/09/30 08:38:55;;;;;;;;;17.00;16.33;;;;;;;;6280543;22;45246;-73
2023/09/30 08:41:33;;;;;;;;;18.33;13.67;;;;;;;;6280423;22;45137;-73
2023/09/30 08:44:02;;;;;;;;;16.67;14.00;;;;;;;;6308599;22;45383;-73
2023/09/30 08:46:31;;;;;;;;;19.67;17.33;;;;;;;;6308341;22;45605;-73
2023/09/30 08:48:57;;;;;;;;;16.33;15.00;;;;;;;;6308576;22;45417;-73
2023/09/30 08:51:23;;;;;;;;;18.33;17.00;;;;;;;;6309034;22;45398;-73
2023/09/30 08:53:49;;;;;;;;;14.33;13.33;;;;;;;;6308457;22;45300;-72
2023/09/30 08:56:15;;;;;;;;;19.67;13.33;;;;;;;;6308212;22;45286;-74
2023/09/30 08:58:41;;;;;;;;;15.67;14.33;;;;;;;;6309332;22;45188;-74
2023/09/30 09:01:09;;;;;;;;;14.33;11.00;;;;;;;;6280352;22;45251;-74
2023/09/30 09:03:36;;;;;;;;;14.67;11.00;;;;;;;;6308966;22;45276;-74
2023/09/30 09:06:01;;;;;;;;;15.67;10.67;;;;;;;;6280133;22;46221;-75
2023/09/30 09:08:26;;;;;;;;;15.00;10.33;;;;;;;;6309082;22;45271;-74
2023/09/30 09:10:59;;;;;;;;;13.00;10.67;;;;;;;;6307780;22;45326;-74
2023/09/30 09:13:24;;;;;;;;;11.00;10.33;;;;;;;;6308746;22;45316;-74
2023/09/30 09:16:04;;;;;;;;;14.33;12.00;;;;;;;;6308456;22;45394;-72
2023/09/30 09:18:33;;;;;;;;;9.00;8.67;;;;;;;;6308941;22;45314;-74
2023/09/30 09:21:09;;;;;;;;;10.00;7.33;;;;;;;;6280629;22;45172;-74
2023/09/30 09:23:38;;;;;;;;;11.67;9.00;;;;;;;;6308850;22;45200;-74
2023/09/30 09:26:06;;;;;;;;;11.33;10.67;;;;;;;;6279902;22;46291;-74
2023/09/30 09:28:36;;;;;;;;;13.67;10.00;;;;;;;;6308998;22;45170;-74
2023/09/30 09:31:01;;;;;;;;;11.00;9.67;;;;;;;;6308409;22;45298;-74
2023/09/30 09:33:35;;;;;;;;;14.00;9.67;;;;;;;;6308632;22;45200;-74
2023/09/30 09:36:00;;;;;;;;;13.33;9.33;;;;;;;;6308180;22;45449;-74
2023/09/30 09:38:25;;;;;;;;;10.00;10.00;;;;;;;;6308406;22;45303;-74
2023/09/30 09:40:50;;;;;;;;;12.67;12.33;;;;;;;;6308207;22;45289;-74
2023/09/30 09:43:16;;;;;;;;;13.67;13.67;;;;;;;;6308446;22;45362;-72
2023/09/30 09:45:43;;;;;;;;;13.33;8.00;;;;;;;;6307985;22;46088;-73
2023/09/30 09:48:09;;;;;;;;;16.67;13.00;;;;;;;;6280637;22;45603;-72
2023/09/30 09:50:35;;;;;;;;;11.67;8.00;;;;;;;;6280002;22;45244;-73
2023/09/30 09:53:02;;;;;;;;;12.00;10.00;;;;;;;;6279704;22;45862;-73
2023/09/30 09:55:27;;;;;;;;;11.00;9.00;;;;;;;;6307728;22;45563;-72
2023/09/30 09:57:54;;;;;;;;;13.33;9.67;;;;;;;;6306857;22;45133;-72
2023/09/30 10:00:20;;;;;;;;;11.00;11.00;;;;;;;;6308577;22;45155;-72
2023/09/30 10:02:46;;;;;;;;;8.33;8.33;;;;;;;;6279855;22;46317;-75
2023/09/30 10:05:12;;;;;;;;;15.67;12.00;;;;;;;;6307905;22;45276;-72
2023/09/30 10:07:39;;;;;;;;;9.67;9.67;;;;;;;;6308113;22;45273;-72
2023/09/30 10:10:07;;;;;;;;;13.67;11.00;;;;;;;;6307318;22;45259;-71
2023/09/30 10:12:37;;;;;;;;;12.00;11.00;;;;;;;;6307653;22;45235;-72
2023/09/30 10:15:22;;;;;;;;;13.33;13.33;;;;;;;;6309191;22;46020;-70
2023/09/30 10:17:59;;;;;;;;;15.00;11.67;;;;;;;;6308031;22;45263;-72
2023/09/30 10:20:28;;;;;;;;;15.33;13.33;;;;;;;;6309662;22;45274;-73
2023/09/30 10:23:12;;;;;;;;;15.67;10.67;;;;;;;;6281675;22;46784;-80
2023/09/30 10:25:39;;;;;;;;;17.67;12.67;;;;;;;;6308750;22;45559;-72
2023/09/30 10:28:24;;;;;;;;;28.67;26.67;;;;;;;;6309936;22;45235;-72
2023/09/30 10:31:08;;;;;;;;;12.67;11.00;;;;;;;;6306970;22;45219;-72
2023/09/30 10:33:33;;;;;;;;;18.00;15.00;;;;;;;;6309595;22;45386;-73
2023/09/30 10:36:00;;;;;;;;;11.25;10.00;;;;;;;;6309360;22;45306;-75
2023/09/30 10:38:34;;;;;;;;;10.33;9.67;;;;;;;;6309586;22;45160;-74
2023/09/30 10:41:02;;;;;;;;;11.67;8.67;;;;;;;;6309133;22;45184;-73
2023/09/30 10:43:37;;;;;;;;;15.00;10.33;;;;;;;;6281408;22;45962;-73
2023/09/30 10:46:06;;;;;;;;;13.50;10.75;;;;;;;;6309051;22;45743;-73
2023/09/30 10:48:32;;;;;;;;;17.33;11.00;;;;;;;;6309576;22;45167;-73
2023/09/30 10:51:02;;;;;;;;;13.00;13.00;;;;;;;;6280920;22;45236;-73
2023/09/30 10:53:28;;;;;;;;;14.00;10.67;;;;;;;;6309034;22;45385;-73
2023/09/30 10:55:57;;;;;;;;;13.75;8.25;;;;;;;;6280731;22;45525;-73
2023/09/30 10:58:38;;;;;;;;;16.50;8.50;;;;;;;;6309813;22;45172;-73
2023/09/30 11:01:04;;;;;;;;;11.25;8.25;;;;;;;;6309297;22;45484;-73
2023/09/30 11:03:29;;;;;;;;;19.67;14.00;;;;;;;;6309627;22;45271;-77
2023/09/30 11:05:54;;;;;;;;;18.00;16.00;;;;;;;;6309222;22;46135;-80
2023/09/30 11:08:22;;;;;;;;;13.00;12.67;;;;;;;;6281313;22;45235;-73
2023/09/30 11:10:48;;;;;;;;;31.00;27.00;;;;;;;;6307007;22;45246;-74
2023/09/30 11:13:13;;;;;;;;;25.67;21.67;;;;;;;;6309347;22;45447;-75
2023/09/30 11:15:40;;;;;;;;;6.00;6.00;;;;;;;;6309121;22;46123;-75
2023/09/30 11:18:16;;;;;;;;;18.50;10.50;;;;;;;;6281328;22;45351;-75
2023/09/30 11:20:42;;;;;;;;;2.50;2.50;;;;;;;;6307615;22;45282;-74
2023/09/30 11:23:08;;;;;;;;;12.75;9.50;;;;;;;;6281036;22;45358;-74
2023/09/30 11:25:39;;;;;;;;;13.50;10.00;;;;;;;;6307825;22;45358;-75
2023/09/30 11:28:13;;;;;;;;;11.00;9.00;;;;;;;;6309173;22;45331;-72
2023/09/30 11:30:52;;;;;;;;;11.00;9.50;;;;;;;;6308761;22;45221;-72
2023/09/30 11:33:18;;;;;;;;;10.50;9.00;;;;;;;;6309068;22;44717;-73
2023/09/30 11:35:55;;;;;;;;;13.00;8.75;;;;;;;;6279791;22;46500;-73
2023/09/30 11:38:20;;;;;;;;;14.00;9.25;;;;;;;;6309044;22;45279;-73
2023/09/30 11:41:05;;;;;;;;;8.50;7.00;;;;;;;;6308487;22;45267;-75
2023/09/30 11:43:34;;;;;;;;;15.75;11.00;;;;;;;;6280659;22;46962;-72
2023/09/30 11:46:08;;;;;;;;;8.25;8.25;;;;;;;;6308672;22;45566;-73
2023/09/30 11:48:33;;;;;;;;;14.00;10.75;;;;;;;;6308561;22;45243;-73
2023/09/30 11:51:00;;;;;;;;;12.50;9.00;;;;;;;;6309072;22;45200;-74
2023/09/30 11:53:25;;;;;;;;;12.50;12.00;;;;;;;;6308888;22;45341;-73
2023/09/30 11:55:50;;;;;;;;;8.50;8.25;;;;;;;;6308434;22;46759;-73
2023/09/30 11:58:18;;;;;;;;;13.50;7.25;;;;;;;;6309303;22;45135;-74
2023/09/30 12:00:43;;;;;;;;;9.50;6.25;;;;;;;;6308933;22;45232;-73
2023/09/30 12:03:10;;;;;;;;;10.00;8.75;;;;;;;;6308942;22;45252;-74
2023/09/30 12:05:36;;;;;;;;;13.50;9.00;;;;;;;;6308136;22;46183;-75
2023/09/30 12:08:02;;;;;;;;;9.75;9.75;;;;;;;;6309412;22;45152;-74
2023/09/30 12:10:27;;;;;;;;;11.50;8.75;;;;;;;;6279169;22;45254;-73
2023/09/30 12:12:52;;;;;;;;;8.00;8.00;;;;;;;;6308851;22;45100;-73
2023/09/30 12:15:22;;;;;;;;;10.75;8.50;;;;;;;;6308397;22;45334;-74
2023/09/30 12:17:47;;;;;;;;;13.20;9.60;;;;;;;;6307707;22;45219;-74
2023/09/30 12:20:15;;;;;;;;;10.75;7.50;;;;;;;;6280456;22;45328;-74
2023/09/30 12:22:40;;;;;;;;;10.50;8.00;;;;;;;;6309063;22;45284;-73
2023/09/30 12:25:08;;;;;;;;;13.25;8.00;;;;;;;;6308495;22;46565;-73
2023/09/30 12:27:33;;;;;;;;;12.60;8.20;;;;;;;;6308901;22;45225;-73
2023/09/30 12:29:59;;;;;;;;;7.25;7.00;;;;;;;;6308961;22;45207;-73
2023/09/30 12:32:25;;;;;;;;;7.80;7.80;;;;;;;;6308842;22;45333;-73
2023/09/30 12:34:51;;;;;;;;;11.50;9.00;;;;;;;;6279429;22;46783;-73
2023/09/30 12:37:16;;;;;;;;;8.50;8.00;;;;;;;;6280253;22;45356;-73
2023/09/30 12:39:41;;;;;;;;;7.75;7.50;;;;;;;;6308463;22;45342;-73
2023/09/30 12:42:09;;;;;;;;;9.00;9.00;;;;;;;;6308712;22;45282;-73
2023/09/30 12:44:34;;;;;;;;;10.40;9.20;;;;;;;;6280389;22;47827;-72
2023/09/30 12:46:59;;;;;;;;;11.00;9.75;;;;;;;;6308770;22;45211;-72
2023/09/30 12:49:25;;;;;;;;;14.50;7.50;;;;;;;;6280795;22;45267;-73
2023/09/30 12:51:50;;;;;;;;;10.50;8.75;;;;;;;;6308392;22;45317;-72
2023/09/30 12:54:18;;;;;;;;;8.25;7.50;;;;;;;;6279869;22;47045;-72
2023/09/30 12:56:43;;;;;;;;;13.40;10.00;;;;;;;;6308246;22;45222;-72
2023/09/30 12:59:08;;;;;;;;;12.50;10.00;;;;;;;;6308478;22;45442;-72
2023/09/30 13:01:34;;;;;;;;;11.50;10.25;;;;;;;;6308605;22;45345;-72
2023/09/30 13:03:59;;;;;;;;;11.50;9.00;;;;;;;;6308598;22;45401;-72
2023/09/30 13:06:24;;;;;;;;;9.75;8.75;;;;;;;;6280311;22;45156;-72
2023/09/30 13:08:49;;;;;;;;;12.00;10.50;;;;;;;;6280719;22;45235;-72
2023/09/30 13:11:15;;;;;;;;;9.00;8.00;;;;;;;;6307635;22;45212;-72
2023/09/30 13:13:40;;;;;;;;;11.75;10.25;;;;;;;;6308623;22;45664;-73
2023/09/30 13:16:07;;;;;;;;;8.00;6.75;;;;;;;;6308114;22;45160;-73
2023/09/30 13:18:33;;;;;;;;;11.25;8.25;;;;;;;;6308441;22;45255;-73
2023/09/30 13:20:58;;;;;;;;;8.75;8.75;;;;;;;;6308207;22;45236;-73
2023/09/30 13:23:24;;;;;;;;;13.75;9.25;;;;;;;;6308603;22;45380;-72
2023/09/30 13:25:49;;;;;;;;;10.25;9.25;;;;;;;;6305866;22;45250;-72
2023/09/30 13:28:15;;;;;;;;;10.75;9.00;;;;;;;;6280119;22;45424;-72
2023/09/30 13:30:40;;;;;;;;;11.00;8.50;;;;;;;;6307996;22;45373;-73
2023/09/30 13:33:05;;;;;;;;;12.00;8.00;;;;;;;;6308217;22;46222;-73
2023/09/30 13:35:31;;;;;;;;;11.50;7.50;;;;;;;;6308090;22;45410;-73
2023/09/30 13:37:56;;;;;;;;;8.75;8.50;;;;;;;;6280526;22;45193;-73
2023/09/30 13:40:21;;;;;;;;;9.00;7.25;;;;;;;;6307545;22;45284;-73
2023/09/30 13:42:47;;;;;;;;;7.25;7.25;;;;;;;;6308642;22;45248;-73
2023/09/30 13:45:12;;;;;;;;;9.50;7.25;;;;;;;;6308108;22;45219;-72
2023/09/30 13:47:37;;;;;;;;;7.50;7.50;;;;;;;;6308877;22;45218;-72
2023/09/30 13:50:06;;;;;;;;;8.25;6.00;;;;;;;;6281064;22;45233;-72
2023/09/30 13:52:33;;;;;;;;;7.75;5.75;;;;;;;;6308530;22;45928;-72
2023/09/30 13:54:58;;;;;;;;;7.00;7.00;;;;;;;;6309025;22;45286;-72
2023/09/30 13:57:23;;;;;;;;;11.75;7.00;;;;;;;;6281956;22;45312;-72
2023/09/30 13:59:48;;;;;;;;;9.00;6.00;;;;;;;;6309465;22;45334;-72
2023/09/30 14:02:14;;;;;;;;;11.25;9.50;;;;;;;;6281394;22;46626;-72
2023/09/30 14:04:39;;;;;;;;;11.75;7.50;;;;;;;;6309369;22;45319;-72
2023/09/30 14:07:07;;;;;;;;;5.75;5.50;;;;;;;;6310084;22;45265;-72
2023/09/30 14:09:33;;;;;;;;;5.00;4.25;;;;;;;;6308947;22;45323;-72
2023/09/30 14:11:58;;;;;;;;;7.25;5.75;;;;;;;;6280624;22;46960;-72
2023/09/30 14:14:24;;;;;;;;;7.75;7.00;;;;;;;;6309581;22;45208;-72
2023/09/30 14:16:49;;;;;;;;;7.75;6.00;;;;;;;;6281756;22;45237;-72
2023/09/30 14:19:14;;;;;;;;;8.25;6.00;;;;;;;;6309469;22;45262;-72
2023/09/30 14:21:42;;;;;;;;;8.00;7.25;;;;;;;;6309671;22;45287;-72
2023/09/30 14:24:08;;;;;;;;;9.50;6.00;;;;;;;;6308810;22;45264;-72
2023/09/30 14:26:33;;;;;;;;;8.25;6.75;;;;;;;;6279873;22;45281;-72
2023/09/30 14:28:59;;;;;;;;;6.00;5.75;;;;;;;;6309173;22;45488;-72
2023/09/30 14:31:24;;;;;;;;;5.50;4.25;;;;;;;;6281249;22;47863;-72
2023/09/30 14:33:50;;;;;;;;;6.50;4.50;;;;;;;;6309560;22;45239;-72
2023/09/30 14:36:17;;;;;;;;;11.75;8.00;;;;;;;;6309324;22;45229;-72
2023/09/30 14:38:43;;;;;;;;;9.75;7.50;;;;;;;;6281263;22;46364;-72
2023/09/30 14:41:08;;;;;;;;;7.00;4.25;;;;;;;;6308311;22;46046;-72
2023/09/30 14:43:34;;;;;;;;;8.25;7.00;;;;;;;;6309453;22;45402;-72
2023/09/30 14:46:03;;;;;;;;;7.00;6.25;;;;;;;;6309566;22;45125;-72
2023/09/30 14:48:28;;;;;;;;;7.00;4.50;;;;;;;;6281641;22;46042;-72
2023/09/30 14:50:54;;;;;;;;;6.00;6.00;;;;;;;;6281036;22;46598;-72
2023/09/30 14:53:19;;;;;;;;;7.75;6.25;;;;;;;;6280779;22;45287;-72
2023/09/30 14:55:44;;;;;;;;;8.00;4.25;;;;;;;;6309059;22;45204;-72
2023/09/30 14:58:10;;;;;;;;;5.75;5.00;;;;;;;;6309398;22;45373;-72
2023/09/30 15:00:35;;;;;;;;;5.75;5.75;;;;;;;;6308940;22;46191;-72
2023/09/30 15:03:01;;;;;;;;;8.25;8.25;;;;;;;;6309486;22;45190;-71
2023/09/30 15:05:26;;;;;;;;;6.25;4.50;;;;;;;;6281487;22;45324;-72
2023/09/30 15:07:51;;;;;;;;;7.00;7.00;;;;;;;;6309519;22;45372;-72
2023/09/30 15:10:16;;;;;;;;;6.25;6.25;;;;;;;;6280355;22;45361;-72
2023/09/30 15:12:42;;;;;;;;;6.00;6.00;;;;;;;;6309584;22;45165;-72
2023/09/30 15:15:07;;;;;;;;;5.75;4.75;;;;;;;;6309363;22;45288;-72
2023/09/30 15:17:33;;;;;;;;;8.50;5.50;;;;;;;;6281076;22;45110;-72
2023/09/30 15:19:59;;;;;;;;;8.25;6.25;;;;;;;;6309152;22;46462;-72
2023/09/30 15:22:25;;;;;;;;;4.60;4.60;;;;;;;;6309182;22;45102;-72
2023/09/30 15:24:50;;;;;;;;;9.75;6.50;;;;;;;;6280806;22;45409;-72
2023/09/30 15:27:15;;;;;;;;;9.00;7.50;;;;;;;;6280444;22;45631;-72
2023/09/30 15:29:41;;;;;;;;;7.25;5.25;;;;;;;;6308840;22;45473;-72
2023/09/30 15:32:06;;;;;;;;;5.50;5.50;;;;;;;;6309142;22;45128;-72
2023/09/30 15:34:31;;;;;;;;;8.50;7.00;;;;;;;;6309216;22;45172;-72
2023/09/30 15:36:57;;;;;;;;;9.25;6.75;;;;;;;;6281092;22;46241;-73
2023/09/30 15:39:22;;;;;;;;;11.50;7.00;;;;;;;;6308532;22;45656;-73
2023/09/30 15:41:47;;;;;;;;;9.00;6.00;;;;;;;;6307680;22;45271;-75
2023/09/30 15:44:12;;;;;;;;;8.25;7.00;;;;;;;;6309034;22;45205;-73
2023/09/30 15:46:38;;;;;;;;;5.75;5.75;;;;;;;;6280366;22;45710;-72
2023/09/30 15:49:03;;;;;;;;;9.25;7.50;;;;;;;;6308941;22;46174;-72
2023/09/30 15:51:29;;;;;;;;;7.75;6.25;;;;;;;;6308774;22;45259;-73
2023/09/30 15:53:55;;;;;;;;;5.50;5.50;;;;;;;;6308935;22;45251;-73
2023/09/30 15:56:20;;;;;;;;;5.50;5.50;;;;;;;;6308668;22;45299;-72
2023/09/30 15:58:46;;;;;;;;;8.75;8.00;;;;;;;;6280712;22;46835;-73
2023/09/30 16:01:12;;;;;;;;;5.50;5.50;;;;;;;;6280516;22;45252;-73
2023/09/30 16:03:37;;;;;;;;;7.75;7.25;;;;;;;;6308749;22;45204;-73
2023/09/30 16:06:06;;;;;;;;;8.75;6.25;;;;;;;;6308617;22;45220;-72
2023/09/30 16:08:31;;;;;;;;;6.00;6.00;;;;;;;;6281170;22;46745;-73
2023/09/30 16:10:56;;;;;;;;;8.75;5.75;;;;;;;;6307909;22;45223;-73
2023/09/30 16:13:21;;;;;;;;;7.50;6.50;;;;;;;;6309419;22;45239;-72
2023/09/30 16:15:48;;;;;;;;;7.00;6.00;;;;;;;;6308868;22;45201;-73
2023/09/30 16:18:13;;;;;;;;;8.00;7.00;;;;;;;;6308815;22;45345;-73
2023/09/30 16:20:39;;;;;;;;;9.00;9.00;;;;;;;;6280291;22;45292;-72
2023/09/30 16:23:04;;;;;;;;;11.00;8.00;;;;;;;;6309253;22;45455;-72
2023/09/30 16:25:29;;;;;;;;;7.50;4.25;;;;;;;;6308242;22;45268;-72
2023/09/30 16:27:54;;;;;;;;;9.00;6.75;;;;;;;;6309200;22;45281;-72
2023/09/30 16:30:20;;;;;;;;;8.50;7.50;;;;;;;;6308780;22;45409;-72
2023/09/30 16:32:45;;;;;;;;;8.75;7.25;;;;;;;;6308789;22;45791;-72
2023/09/30 16:35:10;;;;;;;;;9.00;7.25;;;;;;;;6280040;22;46855;-72
2023/09/30 16:37:38;;;;;;;;;9.00;8.00;;;;;;;;6308841;22;46155;-72
2023/09/30 16:40:04;;;;;;;;;8.75;5.50;;;;;;;;6308075;22;45174;-72
2023/09/30 16:42:30;;;;;;;;;7.50;7.00;;;;;;;;6309143;22;45542;-73
2023/09/30 16:44:56;;;;;;;;;7.75;5.50;;;;;;;;6308742;22;45227;-72
2023/09/30 16:47:21;;;;;;;;;9.25;8.00;;;;;;;;6308804;22;45369;-73
2023/09/30 16:49:47;;;;;;;;;11.50;8.00;;;;;;;;6307832;22;45407;-72
2023/09/30 16:52:13;;;;;;;;;8.00;8.00;;;;;;;;6309141;22;45315;-72
2023/09/30 16:54:38;;;;;;;;;6.00;6.00;;;;;;;;6308152;22;45268;-72
2023/09/30 16:57:04;;;;;;;;;10.00;7.00;;;;;;;;6308807;22;45241;-72
2023/09/30 16:59:29;;;;;;;;;9.50;7.00;;;;;;;;6308828;22;45408;-72
2023/09/30 17:01:55;;;;;;;;;10.25;7.50;;;;;;;;6281168;22;45299;-72
2023/09/30 17:04:20;;;;;;;;;7.75;6.75;;;;;;;;6308624;22;45454;-72
2023/09/30 17:06:46;;;;;;;;;10.25;5.00;;;;;;;;6308723;22;45483;-72
2023/09/30 17:09:12;;;;;;;;;8.25;7.00;;;;;;;;6308276;22;45263;-72
2023/09/30 17:11:38;;;;;;;;;9.25;7.50;;;;;;;;6307977;22;45451;-72
2023/09/30 17:14:03;;;;;;;;;6.25;6.25;;;;;;;;6307513;22;45263;-72
2023/09/30 17:16:29;;;;;;;;;7.00;7.00;;;;;;;;6308267;22;45490;-72
2023/09/30 17:18:54;;;;;;;;;10.75;8.00;;;;;;;;6308481;22;45252;-72
2023/09/30 17:21:19;;;;;;;;;6.75;6.75;;;;;;;;6308467;22;45152;-72
2023/09/30 17:23:44;;;;;;;;;7.25;6.00;;;;;;;;6279806;22;46295;-72
2023/09/30 17:26:10;;;;;;;;;8.50;6.75;;;;;;;;6307548;22;46220;-73
2023/09/30 17:28:35;;;;;;;;;12.75;9.00;;;;;;;;6308814;22;45149;-73
2023/09/30 17:31:01;;;;;;;;;8.50;8.50;;;;;;;;6307950;22;45231;-73
2023/09/30 17:33:26;;;;;;;;;9.75;6.75;;;;;;;;6308719;22;45216;-73
2023/09/30 17:35:58;;;;;;;;;9.25;7.00;;;;;;;;6308256;22;45362;-74
2023/09/30 17:38:23;;;;;;;;;12.50;7.50;;;;;;;;6308535;22;45223;-74
2023/09/30 17:40:48;;;;;;;;;11.75;8.75;;;;;;;;6308344;22;45069;-74
2023/09/30 17:43:13;;;;;;;;;12.33;8.67;;;;;;;;6309089;22;45335;-73
2023/09/30 17:45:38;;;;;;;;;11.67;10.33;;;;;;;;6279776;22;47301;-74
2023/09/30 17:48:04;;;;;;;;;52.00;42.33;;;;;;;;6308014;22;45152;-73
2023/09/30 17:50:29;;;;;;;;;71.75;57.50;;;;;;;;6278594;22;45237;-74
2023/09/30 17:52:54;;;;;;;;;62.33;47.00;;;;;;;;6307861;22;45377;-74
2023/09/30 17:55:19;;;;;;;;;100.75;92.25;;;;;;;;6278509;22;47751;-72
2023/09/30 17:57:44;;;;;;;;;231.33;204.00;;;;;;;;6308009;22;45338;-72
2023/09/30 18:00:11;;;;;;;;;69.00;57.25;;;;;;;;6307714;22;45426;-73
2023/09/30 18:02:37;;;;;;;;;314.50;268.75;;;;;;;;6307888;22;45525;-73
2023/09/30 18:05:03;;;;;;;;;135.33;118.67;;;;;;;;6307286;22;45331;-73
2023/09/30 18:07:29;;;;;;;;;192.00;175.50;;;;;;;;6280029;22;45313;-74
2023/09/30 18:09:54;;;;;;;;;150.00;130.67;;;;;;;;6306704;22;45372;-74
2023/09/30 18:12:19;;;;;;;;;139.00;125.00;;;;;;;;6307866;22;45192;-75
2023/09/30 18:14:44;;;;;;;;;63.50;50.25;;;;;;;;6307318;22;46239;-73
2023/09/30 18:17:09;;;;;;;;;61.25;47.50;;;;;;;;6306913;22;45403;-73
2023/09/30 18:19:35;;;;;;;;;32.00;27.33;;;;;;;;6307528;22;45306;-72
2023/09/30 18:22:00;;;;;;;;;33.33;29.67;;;;;;;;6307899;22;45235;-72
2023/09/30 18:24:25;;;;;;;;;27.00;24.67;;;;;;;;6307042;22;45430;-74
2023/09/30 18:26:50;;;;;;;;;25.67;24.33;;;;;;;;6307634;22;45215;-72
2023/09/30 18:29:15;;;;;;;;;32.33;27.33;;;;;;;;6307682;22;45331;-73
2023/09/30 18:31:41;;;;;;;;;49.00;40.33;;;;;;;;6307469;22;45216;-72
2023/09/30 18:34:06;;;;;;;;;73.75;59.50;;;;;;;;6307756;22;46139;-72
2023/09/30 18:36:31;;;;;;;;;118.50;113.25;;;;;;;;6307637;22;45189;-73
2023/09/30 18:38:56;;;;;;;;;78.75;70.00;;;;;;;;6308696;22;45221;-73
2023/09/30 18:41:23;;;;;;;;;75.00;62.75;;;;;;;;6308689;22;45262;-72
2023/09/30 18:43:48;;;;;;;;;74.00;59.00;;;;;;;;6308368;22;46714;-72
2023/09/30 18:46:13;;;;;;;;;76.50;66.00;;;;;;;;6308578;22;45223;-72
2023/09/30 18:48:39;;;;;;;;;78.75;71.00;;;;;;;;6309137;22;45136;-72
2023/09/30 18:51:05;;;;;;;;;66.50;52.25;;;;;;;;6280473;22;45378;-73
2023/09/30 18:53:30;;;;;;;;;61.50;48.75;;;;;;;;6309088;22;45098;-71
2023/09/30 18:55:56;;;;;;;;;78.50;66.00;;;;;;;;6308603;22;45248;-73
2023/09/30 18:58:22;;;;;;;;;71.25;57.50;;;;;;;;6309100;22;45170;-72
2023/09/30 19:00:48;;;;;;;;;65.75;51.75;;;;;;;;6280302;22;45393;-73
2023/09/30 19:03:14;;;;;;;;;61.50;47.75;;;;;;;;6308932;22;45298;-73
2023/09/30 19:05:39;;;;;;;;;47.25;38.25;;;;;;;;6308726;22;45253;-73
2023/09/30 19:08:05;;;;;;;;;34.00;29.33;;;;;;;;6281328;22;45253;-73
2023/09/30 19:10:31;;;;;;;;;37.00;30.67;;;;;;;;6308137;22;45287;-73
2023/09/30 19:12:56;;;;;;;;;35.00;25.67;;;;;;;;6309173;22;45618;-72
2023/09/30 19:15:23;;;;;;;;;28.00;28.00;;;;;;;;6280293;22;45677;-72
2023/09/30 19:17:49;;;;;;;;;31.67;27.67;;;;;;;;6309028;22;45216;-72
2023/09/30 19:20:15;;;;;;;;;35.00;29.33;;;;;;;;6309074;22;45176;-75
2023/09/30 19:22:40;;;;;;;;;32.67;26.67;;;;;;;;6309416;22;45234;-75
2023/09/30 19:25:05;;;;;;;;;34.67;29.00;;;;;;;;6279616;22;45193;-73
2023/09/30 19:27:31;;;;;;;;;29.00;25.67;;;;;;;;6309348;22;45702;-74
2023/09/30 19:29:56;;;;;;;;;33.33;30.33;;;;;;;;6280671;22;45232;-74
2023/09/30 19:32:21;;;;;;;;;44.00;37.00;;;;;;;;6309103;22;45283;-74
2023/09/30 19:34:47;;;;;;;;;34.00;31.33;;;;;;;;6280637;22;45261;-73
2023/09/30 19:37:12;;;;;;;;;37.33;32.67;;;;;;;;6309445;22;45098;-73
2023/09/30 19:39:37;;;;;;;;;38.00;30.67;;;;;;;;6308527;22;45302;-73
2023/09/30 19:42:03;;;;;;;;;33.67;30.33;;;;;;;;6309121;22;45477;-73
2023/09/30 19:44:28;;;;;;;;;33.67;28.00;;;;;;;;6280520;22;45279;-74
2023/09/30 19:46:53;;;;;;;;;28.67;27.00;;;;;;;;6308694;22;45223;-74
2023/09/30 19:49:18;;;;;;;;;37.67;31.67;;;;;;;;6280115;22;45945;-73
2023/09/30 19:51:43;;;;;;;;;37.33;30.67;;;;;;;;6280385;22;47752;-73
2023/09/30 19:54:10;;;;;;;;;30.67;28.00;;;;;;;;6308356;22;45242;-72
2023/09/30 19:56:36;;;;;;;;;34.00;29.67;;;;;;;;6308834;22;45292;-73
2023/09/30 19:59:01;;;;;;;;;35.67;29.33;;;;;;;;6308479;22;45318;-72
2023/09/30 20:01:26;;;;;;;;;27.67;27.67;;;;;;;;6308560;22;46384;-72
2023/09/30 20:03:52;;;;;;;;;32.00;28.67;;;;;;;;6280582;22;45288;-72
2023/09/30 20:06:17;;;;;;;;;27.67;25.67;;;;;;;;6308861;22;45243;-72
2023/09/30 20:08:44;;;;;;;;;32.67;30.33;;;;;;;;6308598;22;45219;-73
2023/09/30 20:11:16;;;;;;;;;36.67;30.67;;;;;;;;6306796;22;45593;-73
2023/09/30 20:13:41;;;;;;;;;40.00;32.00;;;;;;;;6307795;22;45286;-72
2023/09/30 20:16:06;;;;;;;;;34.00;27.67;;;;;;;;6308430;22;45175;-72
2023/09/30 20:18:32;;;;;;;;;36.33;29.67;;;;;;;;6308699;22;45270;-72
2023/09/30 20:20:57;;;;;;;;;36.67;31.67;;;;;;;;6280447;22;46508;-72
2023/09/30 20:23:22;;;;;;;;;38.33;32.00;;;;;;;;6280701;22;45218;-74
2023/09/30 20:25:48;;;;;;;;;30.33;27.67;;;;;;;;6308061;22;45244;-74
2023/09/30 20:28:13;;;;;;;;;29.67;29.33;;;;;;;;6308412;22;45894;-74
2023/09/30 20:30:38;;;;;;;;;42.67;31.67;;;;;;;;6280354;22;46806;-72